createdAt,value
2023-05-29T00:00:00.608Z,12.8
2023-05-29T00:10:00.594Z,12.4
2023-05-29T00:20:00.604Z,13.4
2023-05-29T00:30:00.556Z,13.8
2023-05-29T00:40:00.612Z,13.4
2023-05-29T00:50:00.550Z,12.8
2023-05-29T01:00:00.627Z,12.6
2023-05-29T01:10:00.549Z,12.2
2023-05-29T01:20:00.615Z,12.1
2023-05-29T01:30:00.577Z,12.1
2023-05-29T01:40:00.604Z,11.8
2023-05-29T01:50:00.694Z,11.6
2023-05-29T02:00:00.603Z,11.4
2023-05-29T02:10:00.563Z,11.4
2023-05-29T02:20:00.735Z,11.8
2023-05-29T02:30:00.545Z,12.0
2023-05-29T02:40:00.559Z,12.0
2023-05-29T02:50:00.564Z,11.7
2023-05-29T03:00:00.646Z,11.6
2023-05-29T03:10:00.737Z,11.7
2023-05-29T03:20:00.626Z,11.6
2023-05-29T03:30:00.558Z,11.7
2023-05-29T03:40:00.557Z,11.9
2023-05-29T03:50:00.569Z,12.1
2023-05-29T04:00:00.613Z,12.6
2023-05-29T04:10:00.565Z,13.1
2023-05-29T04:20:00.593Z,13.5
2023-05-29T04:30:00.587Z,13.9
2023-05-29T04:40:00.565Z,14.4
2023-05-29T04:50:00.567Z,14.8
2023-05-29T05:00:00.619Z,15.4
2023-05-29T05:10:00.569Z,16.6
2023-05-29T05:20:00.611Z,18.2
2023-05-29T05:30:00.658Z,20.0
2023-05-29T05:40:00.686Z,21.6
2023-05-29T05:50:00.657Z,22.9
2023-05-29T06:00:00.636Z,23.6
2023-05-29T06:10:00.599Z,24.3
2023-05-29T06:40:00.515Z,26.9
2023-05-29T06:50:00.477Z,27.9
2023-05-29T07:00:00.495Z,28.1
2023-05-29T07:10:01.428Z,28.1
2023-05-29T07:20:00.350Z,28.3
2023-05-29T07:30:00.323Z,29.3
2023-05-29T07:40:00.307Z,30.8
2023-05-29T07:50:00.309Z,31.5
2023-05-29T08:00:00.330Z,30.0
2023-05-29T08:10:00.328Z,27.2
2023-05-29T08:20:00.615Z,26.4
2023-05-29T08:30:00.314Z,25.3
2023-05-29T08:40:00.336Z,25.1
2023-05-29T08:50:00.320Z,27.8
2023-05-29T09:00:00.370Z,30.5
2023-05-29T09:10:00.325Z,33.4
2023-05-29T09:20:00.429Z,33.2
2023-05-29T09:30:00.344Z,31.9
2023-05-29T09:40:00.317Z,32.5
2023-05-29T09:50:00.378Z,31.6
2023-05-29T10:00:00.371Z,30.9
2023-05-29T10:10:00.337Z,30.7
2023-05-29T10:20:00.438Z,30.6
2023-05-29T10:30:00.326Z,30.2
2023-05-29T10:40:00.337Z,30.5
2023-05-29T11:00:00.715Z,32.3
2023-05-29T11:10:00.693Z,32.0
2023-05-29T11:20:00.679Z,31.0
2023-05-29T11:30:00.670Z,27.4
2023-05-29T11:40:00.681Z,25.4
2023-05-29T11:50:00.700Z,26.5
2023-05-29T12:00:00.669Z,25.8
2023-05-29T12:10:00.687Z,25.3
2023-05-29T12:20:00.778Z,25.6
2023-05-29T12:30:00.780Z,28.2
2023-05-29T12:40:00.680Z,26.6
2023-05-29T12:50:00.664Z,25.4
2023-05-29T13:00:00.684Z,25.4
2023-05-29T13:10:00.701Z,25.8
2023-05-29T13:20:00.805Z,27.5
2023-05-29T13:30:00.678Z,27.9
2023-05-29T13:40:00.737Z,28.2
2023-05-29T13:50:00.675Z,28.4
2023-05-29T14:00:00.528Z,28.9
2023-05-29T14:10:00.334Z,27.7
2023-05-29T14:20:00.494Z,27.3
2023-05-29T14:30:00.301Z,27.9
2023-05-29T14:40:00.292Z,27.8
2023-05-29T14:50:00.308Z,28.2
2023-05-29T15:00:00.375Z,27.3
2023-05-29T15:10:00.286Z,27.0
2023-05-29T15:20:00.317Z,27.0
2023-05-29T15:30:00.275Z,27.7
2023-05-29T15:40:00.304Z,27.6
2023-05-29T15:50:00.286Z,27.9
2023-05-29T16:00:00.324Z,27.6
2023-05-29T16:10:00.326Z,27.2
2023-05-29T16:20:00.320Z,26.4
2023-05-29T16:30:00.426Z,25.9
2023-05-29T16:40:00.437Z,25.6
2023-05-29T16:50:00.435Z,25.0
2023-05-29T17:00:00.481Z,24.1
2023-05-29T17:10:00.312Z,23.5
2023-05-29T17:20:00.300Z,22.5
2023-05-29T17:30:00.291Z,21.4
2023-05-29T17:40:00.293Z,20.5
2023-05-29T17:50:00.320Z,19.9
2023-05-29T18:00:00.404Z,19.2
2023-05-29T18:10:00.300Z,18.9
2023-05-29T18:20:00.310Z,18.4
2023-05-29T18:30:00.328Z,18.0
2023-05-29T18:40:00.407Z,17.6
2023-05-29T18:50:00.355Z,17.3
2023-05-29T19:00:00.439Z,17.4
2023-05-29T19:10:00.308Z,17.4
2023-05-29T19:20:00.303Z,17.1
2023-05-29T19:30:00.314Z,17.0
2023-05-29T19:40:00.333Z,16.8
2023-05-29T19:50:00.305Z,16.4
2023-05-29T20:00:00.451Z,16.4
2023-05-29T20:10:00.362Z,16.3
2023-05-29T20:20:00.298Z,16.3
2023-05-29T20:30:01.505Z,16.1
2023-05-29T20:40:00.305Z,16.2
2023-05-29T20:50:00.299Z,16.4
2023-05-29T21:00:00.296Z,16.4
2023-05-29T21:10:00.289Z,16.4
2023-05-29T21:20:00.289Z,16.0
2023-05-29T21:30:00.279Z,15.7
2023-05-29T21:40:00.290Z,15.6
2023-05-29T21:50:00.285Z,15.5
2023-05-29T22:00:00.287Z,15.4
2023-05-29T22:10:00.276Z,15.4
2023-05-29T22:20:00.284Z,15.4
2023-05-29T22:30:00.283Z,15.6
2023-05-29T22:40:00.277Z,15.4
2023-05-29T22:50:00.287Z,14.9
2023-05-29T23:00:00.288Z,14.8
2023-05-29T23:10:00.300Z,14.8
2023-05-29T23:20:00.296Z,14.6
2023-05-29T23:30:00.286Z,14.9
2023-05-29T23:40:00.269Z,14.8
2023-05-29T23:50:00.269Z,14.3
